x

9439040 - Astoria, Or (asto3) Weather Station

3:30 - Fri 6th Mar 2015 All times are PST. -8 hours from GMT.

  • Wind
    6mph, 7mph gusts
  • Sea Temp 45°f
  • Luft Temp 43°f
  • Sea Pressure 1028.3mb
  • 9439040 - Astoria, Or
  • 9439040 - Astoria, Or

More Historic Weather Station data

Upgrade to MSW Pro to gain access to the past 30 days of data for over 8000 Wavebouys and Weather Stations around the globe.

Join Pro

Comparision Forecast

View Surf forecast
   
Fr 03/06 3:30 6 7 mph 1028.3mb 45f 43f
3:24 3 8 mph 1028.3mb 45f 43f
3:18 5 8 mph 1028.3mb 45f 43f
3:12 5 8 mph 1028.3mb 45f 43f
3:06 2 5 mph 1028.4mb 45f 43f
3:00 2
mph
1028.4mb 45f 42f
2:54 1 3 mph 1028.3mb 45f 43f
2:48 1 2 mph 1028.4mb 45f 42f
2:42  -  2 mph 1028.5mb 45f 42f
2:36  -  5 mph 1028.6mb 45f 43f
2:30  -  2 mph 1028.6mb 45f 42f
2:24  -  1 mph 1028.7mb 45f 42f
2:18  -  1 mph 1028.6mb 45f 42f
2:12  -  2 mph 1028.6mb 45f 43f
2:06 1 3 mph 1028.6mb 45f 43f
2:00  -  3 mph 1028.6mb 45f 43f
1:54 1 6 mph 1028.6mb 45f 43f
1:48  -  mph 1028.5mb 45f -
1:42  -  mph 1028.5mb 45f -
1:36  -  mph 1028.5mb 45f -
1:30  -  1 mph 1028.5mb 45f 42f
1:24  -  2 mph 1028.5mb 45f 42f
1:18  -  5 mph 1028.4mb 45f 43f
1:12 6 10 mph 1028.4mb 45f 43f
1:06 3 7 mph 1028.4mb 45f 43f
1:00  -  5 mph 1028.5mb 45f 43f
12:54 3 8 mph 1028.5mb 45f 43f
12:48  -  mph 1028.5mb 45f 44f
12:42  -  mph 1028.5mb 45f 44f
12:36  -  mph 1028.5mb 45f 43f
12:30 5 8 mph 1028.5mb 45f 44f
12:24 5 8 mph 1028.5mb 45f 44f
12:18  -  8 mph 1028.6mb 45f 44f
12:12 6 7 mph 1028.6mb 45f 44f
12:06  -  1 mph 1028.7mb 45f 43f
12:00  -  2 mph 1028.7mb 45f 44f
Do 03/05 11:54  -  2 mph 1028.7mb 45f 44f
11:48  -  1 mph 1028.8mb 45f 43f
11:42  -  1 mph 1028.8mb 45f 43f
11:36  -  1 mph 1028.8mb 45f 43f
11:30 1 2 mph 1028.9mb 45f 43f
11:24  -  1 mph 1028.9mb 45f 43f
11:18 1 2 mph 1028.9mb 46f 43f
11:12 1 2 mph 1029mb 46f 43f
11:06 2 5 mph 1029mb 45f 44f
11:00  -  mph 1029mb - -
10:54  -  mph 1029mb - -
10:48 2 6 mph 1028.9mb 45f -
10:42 5
mph
1028.9mb 45f -
10:36 2 3 mph 1028.9mb 45f -
10:30 3 5 mph 1028.9mb 45f 44f
10:24 3 5 mph 1029mb 45f 44f
10:18 5 6 mph 1029mb 46f 45f
10:12 5 6 mph 1029mb 46f 45f
10:06 2 3 mph 1028.9mb 46f 45f
10:00 2 3 mph 1028.9mb 46f 45f
9:54 2 3 mph 1028.9mb 46f 45f
9:48 2 3 mph 1028.8mb 46f 45f
9:42 2
mph
1028.8mb 46f 46f
9:36 1 2 mph 1028.8mb 46f 45f
9:30  -  2 mph 1028.8mb 46f 46f
9:24 2 3 mph 1028.8mb 45f 46f
9:18  -  1 mph 1028.7mb 45f 47f
9:12 1 5 mph 1028.7mb 45f 46f
9:06 3 5 mph 1028.7mb 45f 46f
9:00 2 3 mph 1028.7mb 45f 47f
8:54 2 5 mph 1028.7mb 45f 47f
8:48  -  2 mph 1028.7mb 45f 47f
8:42  -  1 mph 1028.7mb 45f 48f
8:36  -  1 mph 1028.6mb 45f 48f
8:30  -  2 mph 1028.5mb 45f 48f
8:24 1 2 mph 1028.5mb 45f 48f
8:18  -  1 mph 1028.5mb 45f 48f
8:12  -  1 mph 1028.5mb 45f 49f
8:06 1 2 mph 1028.5mb 45f 49f
8:00  -  1 mph 1028.4mb 45f 49f
7:54  -  1 mph 1028.4mb 45f 49f
7:48  -  1 mph 1028.4mb 45f 49f
7:42 1 3 mph 1028.4mb 45f 49f
7:36 2 3 mph 1028.4mb 45f 48f
7:30 2 3 mph 1028.4mb 45f 49f
7:24 2 3 mph 1028.4mb 45f 48f
7:18 2 3 mph 1028.4mb 45f 49f
7:12 2 3 mph 1028.4mb 45f 49f
7:06 2 5 mph 1028.4mb 45f 49f
7:00 2 3 mph 1028.3mb 45f 49f
6:54 2
mph
1028.3mb 45f 50f
6:48 1 2 mph 1028.3mb 45f 50f
6:42 1 2 mph 1028.2mb 45f 49f
6:36  -  2 mph 1028.2mb 45f 50f
6:30 1
mph
1028.2mb 45f 51f
6:24 2
mph
1028.1mb 45f 51f
6:18  -  1 mph 1028.1mb 45f 51f
6:12  -  2 mph 1028.1mb 45f 50f
6:06 1 2 mph 1028.1mb 45f 50f
6:00 1 2 mph 1028.1mb 45f 49f
5:54 2 3 mph 1028.1mb 45f 49f
5:48 2 3 mph 1028.1mb 45f 49f
5:42  -  2 mph 1028.1mb 45f 50f
5:36 1 3 mph 1028.1mb 45f 50f
5:30 1 2 mph 1028.1mb 45f 50f
5:24  -  2 mph 1028mb 45f 51f
5:18  -  2 mph 1028mb 45f 51f
5:12 2 3 mph 1028mb 45f 50f
5:06 1 3 mph 1028mb 45f 51f
5:00 2 3 mph 1027.9mb 45f 51f
4:54 1 2 mph 1027.9mb 45f 52f
4:48  -  2 mph 1027.9mb 45f 52f
4:42  -  3 mph 1027.9mb 45f 52f
4:36  -  3 mph 1028mb 45f 52f
4:30 1 2 mph 1028mb 45f 51f
4:24 2 3 mph 1028mb 45f 51f
4:18  -  3 mph 1028mb 45f 51f
4:12 2 3 mph 1028mb 45f 51f
4:06  -  3 mph 1028mb 45f 51f
4:00 2 3 mph 1028mb 45f 51f
3:54 1 2 mph 1028mb 45f 51f
3:48 1 3 mph 1028mb 45f 51f
3:42 1 2 mph 1028mb 45f 51f
3:36  -  1 mph 1028.1mb 45f 53f
3:30 1 2 mph 1028.1mb 45f 53f
3:24 1 2 mph 1028.1mb 45f 54f
3:18 1 2 mph 1028.1mb 45f 53f
3:12 1 2 mph 1028.1mb 45f 53f
3:06 2
mph
1028.2mb 45f 52f
3:00  -  2 mph 1028.2mb 45f 53f
2:54  -  1 mph 1028.2mb 45f 52f
2:48  -  3 mph 1028.2mb 45f 50f
2:42 1 2 mph 1028.2mb 45f 49f
2:36 1 5 mph 1028.3mb 45f 49f
2:30 5 6 mph 1028.3mb 45f 48f
2:24  -  1 mph 1028.2mb 45f 52f
2:18  -  1 mph 1028.2mb 45f 52f
2:12  -  1 mph 1028.2mb 45f 51f
2:06 2 3 mph 1028.2mb 45f 49f
2:00 2
mph
1028.2mb 45f 49f
1:54 2 3 mph 1028.3mb 45f 49f
1:48 2 3 mph 1028.3mb 45f 48f
1:42 2
mph
1028.3mb 45f 49f
1:36  -  1 mph 1028.3mb 45f 52f
1:30 1 2 mph 1028.3mb 45f 49f
1:24 2 3 mph 1028.4mb 45f 47f
1:18 2 3 mph 1028.4mb 45f 47f
1:12 2 3 mph 1028.5mb 45f 48f
1:06  -  2 mph 1028.5mb 45f 49f
1:00 1 2 mph 1028.6mb 45f 49f
12:54 2 3 mph 1028.6mb 45f 47f
12:48 2 3 mph 1028.6mb 45f 48f
12:42 2
mph
1028.7mb 45f 48f
12:36 2
mph
1028.7mb 45f 47f
12:30 2 3 mph 1028.7mb 45f 47f
12:24 2 3 mph 1028.8mb 45f 46f
12:18 3 5 mph 1028.9mb 45f 45f
12:12 2 3 mph 1028.9mb 45f 46f
12:06 2 3 mph 1028.9mb 45f 46f
12:00 3 5 mph 1029mb 45f 46f
11:54 2 3 mph 1029mb 45f 46f
11:48 2
mph
1029mb 45f 46f
11:42 2 3 mph 1029mb 45f 46f
11:36 2 3 mph 1029mb 45f 46f
11:30 2 3 mph 1029mb 45f 45f
11:24 1 2 mph 1029mb 45f 46f
11:18 1 2 mph 1029.1mb 45f 45f
11:12 2 3 mph 1029.1mb 45f 44f
11:06 3 5 mph 1029mb 45f 44f
11:00 3 5 mph 1029mb 45f 44f
10:54 3 5 mph 1029mb 45f 44f
10:48 2 7 mph 1029.1mb 45f 44f
10:42 5 6 mph 1029mb 45f 44f
10:36 3 7 mph 1029.1mb 45f 44f
10:30 1 6 mph 1029.1mb 45f 44f
10:24 3 7 mph 1029.1mb 45f 44f
10:18  -  8 mph 1029.2mb 45f 44f
10:12 5 8 mph 1029.1mb 45f 42f
10:06 7 10 mph 1029.1mb 45f 42f
10:00 7 9 mph 1029.1mb 45f 42f
9:54 7 10 mph 1029mb 45f 42f
9:48 8 10 mph 1029mb 45f 41f
9:42 8 10 mph 1029mb 45f 41f
9:36 6 8 mph 1029.1mb 45f 41f
9:30 7 9 mph 1029.1mb 45f 41f
9:24 6 9 mph 1029.1mb 45f 41f
9:18 2 5 mph 1029.1mb 45f 41f
9:12 2 6 mph 1029.1mb 45f 41f
9:06 1 6 mph 1029.1mb 45f 41f
9:00 3 6 mph 1029mb 45f 40f
8:54 3 7 mph 1028.9mb 45f 40f
8:48 3 7 mph 1028.8mb 45f 40f
8:42 5 8 mph 1028.7mb 45f 40f
8:36 5 7 mph 1028.7mb 45f 40f
8:30 5 6 mph 1028.6mb 45f 39f
8:24 5 7 mph 1028.5mb 45f 39f
8:18 3 5 mph 1028.5mb 45f 39f
8:12 2 7 mph 1028.5mb 45f 39f
8:06 3 8 mph 1028.4mb 45f 39f
8:00 5 8 mph 1028.3mb 45f 39f
7:54 6 9 mph 1028.2mb 45f 39f
7:48 3 6 mph 1028.1mb 45f 39f
7:42 3 6 mph 1028.1mb 45f 39f
7:36 1 6 mph 1028mb 45f 39f
7:30 3 6 mph 1028mb 45f 39f
7:24 2 6 mph 1028mb 45f 39f
7:18 5 7 mph 1027.9mb 45f 39f
7:12 3 6 mph 1027.8mb 45f 39f
7:06 3 6 mph 1027.7mb 45f 39f
7:00 3 6 mph 1027.7mb 45f 39f
6:54 5 6 mph 1027.5mb 45f 39f
6:48 2 3 mph 1027.5mb 45f 39f
6:42 2 5 mph 1027.5mb 45f 39f
6:36 3 6 mph 1027.5mb 45f 39f
6:30 2 5 mph 1027.5mb 45f 39f
6:24 3 5 mph 1027.4mb 45f 39f
6:18 2 5 mph 1027.3mb 45f 39f
6:12 2 5 mph 1027.3mb 45f 39f
6:06 2 5 mph 1027.2mb 45f 39f
6:00 1 5 mph 1027.1mb 45f 39f
5:54 3 7 mph 1027.1mb 45f 39f
5:48 5 7 mph 1026.9mb 45f 39f
5:42 3 8 mph 1026.9mb 45f 39f
5:36 6 8 mph 1026.8mb 45f 39f
5:30 3 7 mph 1026.8mb 45f 39f
5:24 3 6 mph 1026.8mb 45f 39f
5:18  -  2 mph 1026.8mb 45f 39f
5:12 2 3 mph 1026.9mb 45f 39f
5:06 1 2 mph 1026.8mb 45f 39f
5:00 1 2 mph 1026.8mb 45f 39f
4:54 1 2 mph 1026.7mb 45f 39f
4:48 1 3 mph 1026.7mb 45f 39f
4:42  -  2 mph 1026.7mb 45f 39f
4:36 1 3 mph 1026.7mb 45f 39f
4:30 1 6 mph 1026.6mb 45f 39f
4:24 1 3 mph 1026.6mb 45f 39f
4:18 1 3 mph 1026.6mb 45f 39f
4:12  -  1 mph 1026.5mb 45f 39f
4:06  -  2 mph 1026.5mb 45f 39f
4:00  -  1 mph 1026.6mb 45f 39f
3:54  -  1 mph 1026.6mb 45f 39f
3:48  -  1 mph 1026.6mb 45f 39f
3:42 1 2 mph 1026.5mb 45f 39f
3:36 1 3 mph 1026.5mb 45f 39f
3:30  -  mph 1026.4mb 45f 39f
3:24  -  2 mph 1026.4mb 45f 39f
3:18 2
mph
1026.5mb 45f 39f
3:12 1 2 mph 1026.5mb 45f 39f
3:06 2
mph
1026.6mb 45f 39f
3:00  -  1 mph 1026.7mb 45f 39f
2:54  -  1 mph 1026.7mb 45f 39f
2:48 1 2 mph 1026.7mb 45f 39f
2:42 1
mph
1026.7mb 45f 39f
2:36  -  2 mph 1026.7mb 45f 39f
2:30 1 5 mph 1026.6mb 45f 39f
2:24 3 6 mph 1026.6mb 45f 39f
2:18 6
mph
1026.6mb 45f 39f
2:12 2
mph
1026.7mb 45f 40f
2:06 1 3 mph 1026.7mb 45f 40f
2:00 2 3 mph 1026.7mb - 40f
1:54 2 3 mph 1026.7mb - 40f
1:48  -  mph 1026.7mb - -
1:42  -  mph 1026.7mb - -
1:36  -  mph 1026.7mb - -
1:30 2 3 mph 1026.7mb 45f 40f
1:24 2 3 mph 1026.6mb 45f 40f
1:18 2
mph
1026.5mb 45f 40f
1:12  -  1 mph 1026.6mb 46f 41f
1:06  -  1 mph 1026.6mb 46f 41f
1:00 1
mph
1026.6mb 46f 41f
12:54  -  1 mph 1026.6mb 46f 41f
12:48  -  1 mph - 46f 41f
12:42  -  1 mph - 46f 41f
12:36 1
mph
- 46f 41f
12:30  -  1 mph 1026.5mb 46f 41f
12:24  -  2 mph 1026.6mb 46f 41f
12:18 1 2 mph 1026.5mb 46f 41f
12:12  -  2 mph 1026.5mb 46f 41f
12:06  -  2 mph 1026.5mb 46f 41f
12:00  -  mph 1026.5mb 46f 41f
Mi 03/04 11:54  -  1 mph 1026.5mb 46f 41f
11:48 1
mph
1026.6mb 46f 41f
11:42  -  1 mph 1026.7mb 46f 41f
11:36  -  1 mph 1026.7mb 46f 41f
11:30 1
mph
1026.6mb 46f 41f
11:24  -  2 mph 1026.6mb 46f 42f
11:18 2
mph
1026.6mb - 42f
11:12  -  1 mph 1026.6mb - 42f
11:06 1 3 mph 1026.6mb - 42f
11:00 2
mph
- 46f 42f
10:54 2
mph
- 46f 42f
10:48 1 2 mph 1026.5mb 46f 42f
10:42  -  1 mph 1026.4mb 46f 42f
10:36 1 2 mph 1026.5mb 46f 42f
10:30 1 2 mph 1026.5mb 46f 42f
10:24 1 2 mph 1026.5mb 46f 42f
10:18  -  2 mph 1026.5mb 46f 42f
10:12 2 3 mph 1026.4mb 46f 43f
10:06  -  1 mph 1026.4mb 46f 43f
10:00  -  2 mph 1026.4mb 46f 44f
9:54 1 2 mph 1026.4mb 46f 43f
9:48 1 2 mph 1026.4mb 46f 44f
9:42 1 3 mph 1026.4mb 46f 43f
9:36 5 6 mph 1026.3mb 46f 44f
9:30 2 3 mph 1026.2mb 46f 45f
9:24  -  2 mph 1026.2mb 46f 45f
9:18 1 2 mph 1026.2mb 46f 44f
9:12 2 5 mph 1026.1mb 46f 45f
9:06 2 6 mph 1026mb 46f 46f
9:00 2 5 mph 1026mb 46f 46f
8:54 2 5 mph 1026mb 46f 46f
8:48 3 6 mph 1026mb 46f 45f
8:42 5 6 mph 1025.9mb 46f 46f
8:36 3 6 mph 1025.9mb 46f 46f
8:30 2 5 mph 1025.8mb 46f 46f
8:24 3 5 mph 1025.8mb 46f 46f
8:18 3 5 mph 1025.8mb 46f 46f
8:12 2 6 mph 1025.7mb 46f 48f
8:06 5 10 mph 1025.7mb 46f 49f
8:00 6 9 mph 1025.7mb 46f 49f
7:54 7 10 mph 1025.7mb 46f 49f
7:48 9 13 mph 1025.7mb 46f 49f
7:42 11 13 mph 1025.7mb 46f 49f
7:36 9 14 mph 1025.6mb 46f 49f
7:30 7 11 mph 1025.6mb 46f 49f
7:24 6 8 mph 1025.6mb 46f 48f
7:18 6 8 mph 1025.5mb 46f 48f
7:12 6 10 mph 1025.6mb 46f 48f
7:06 7 9 mph 1025.5mb 46f 48f
7:00 5 9 mph 1025.6mb 46f 48f
6:54 5 8 mph 1025.5mb 46f 49f
6:48 6 9 mph 1025.6mb 46f 49f
6:42 7 9 mph 1025.6mb 46f 49f
6:36 6 8 mph 1025.5mb 46f 50f
6:30 6 10 mph 1025.5mb 46f 50f
6:24 3 6 mph 1025.5mb 46f 50f
6:18 3 6 mph 1025.4mb 46f 50f
6:12 5 6 mph 1025.4mb 46f 50f
6:06 5 6 mph 1025.4mb 46f 50f
6:00 2
mph
1025.3mb 46f 50f
5:54 1 2 mph 1025.3mb 46f 50f
5:48 2 5 mph 1025.2mb 46f 49f
5:42 5 6 mph 1025.2mb 46f 49f
5:36 6 7 mph 1025.1mb 46f 49f
5:30 8 9 mph 1025.1mb 46f 49f
5:24 8 9 mph 1025.1mb 46f 49f
5:18 8 9 mph 1025mb 46f 49f
5:12 8 9 mph 1025mb 46f 49f
5:06 7 8 mph 1025mb 46f 49f
5:00 6 7 mph 1025.1mb 46f 50f
4:54 6 8 mph 1025.1mb 46f 50f
4:48 8
mph
1025.1mb 46f 50f
4:42 7 8 mph 1025.2mb 46f 49f
4:36 7 8 mph 1025.3mb 46f 49f
4:30 5 6 mph 1025.4mb 46f 49f
4:24 5 8 mph 1025.4mb 46f 50f
4:18 7 8 mph 1025.4mb 46f 50f
4:12 6 8 mph 1025.4mb 46f 49f
4:06 7 8 mph 1025.4mb 46f 49f
4:00 7 9 mph 1025.4mb 46f 49f
3:54 7 8 mph 1025.4mb 46f 49f
3:48 7 9 mph 1025.4mb 46f 49f
3:42 6 9 mph 1025.4mb 46f 49f
3:36 8
mph
1025.4mb 46f 49f
3:30 6 7 mph 1025.3mb 46f 49f
3:24 6 10 mph 1025.3mb 45f 50f
3:18 8 10 mph 1025.4mb 45f 50f
3:12 8 9 mph 1025.4mb 45f 50f
3:06 5 7 mph 1025.4mb 45f 50f
3:00 6 8 mph 1025.3mb 45f 49f
2:54 6 7 mph 1025.3mb 45f 49f
2:48 3 7 mph 1025.4mb 45f 49f
2:42 6 7 mph 1025.4mb 45f 49f
2:36 3 5 mph 1025.5mb 45f 49f
2:30 5 6 mph 1025.4mb 45f 49f
2:24 5 7 mph 1025.4mb 45f 49f
2:18 6
mph
1025.5mb 45f 49f
2:12 1 2 mph 1025.5mb 45f 51f
2:06  -  1 mph 1025.5mb 45f 52f
2:00  -  2 mph 1025.5mb 45f 50f
1:54 1 2 mph 1025.4mb 45f 49f
1:48  -  1 mph 1025.5mb 45f 49f
1:42 2 5 mph 1025.5mb 45f 46f
1:36 2 3 mph 1025.4mb 45f 46f
1:30 3 6 mph 1025.6mb 45f 46f
1:24  -  7 mph 1025.7mb 45f 47f
1:18 1 2 mph 1025.7mb 45f 48f
1:12 1 2 mph 1025.7mb 45f 47f
1:06 2 3 mph 1025.7mb 45f 45f
1:00 3
mph
1025.7mb 45f 45f
12:54 3 5 mph 1025.8mb 45f 45f
12:48 3
mph
1025.8mb 45f 46f
12:42 2 3 mph 1025.8mb 45f 47f
12:36 2
mph
1025.8mb 45f 48f
12:30 2 3 mph 1025.9mb 45f 47f
12:24 2 3 mph 1026mb 45f 48f
12:18  -  2 mph 1025.9mb 45f 49f
12:12 2 3 mph 1026mb 45f 47f
12:06 1 5 mph 1026mb 45f 47f
12:00 3 6 mph 1026.1mb 45f 48f
11:54 1 3 mph 1026mb 45f 47f
11:48 1 3 mph 1026.1mb 45f 47f
11:42  -  1 mph 1026.1mb 45f 46f
11:36 1 2 mph 1026.2mb 45f 45f
11:30 1 2 mph 1026.2mb 45f 44f
11:24  -  1 mph 1026.2mb 45f 44f
11:18  -  2 mph 1026.3mb 45f 44f
11:12 2 3 mph 1026.4mb 45f 43f
11:06 2 3 mph 1026.5mb 45f 43f
11:00 1 2 mph 1026.4mb 45f 43f
10:54 2
mph
1026.5mb 45f 42f
10:48 2 3 mph 1026.5mb 45f 42f
10:42 3 5 mph 1026.5mb 45f 42f
10:36 3 6 mph 1026.5mb 45f 42f
10:30 3 6 mph 1026.5mb 45f 42f
10:24 3 7 mph 1026.4mb 45f 42f
10:18 3 8 mph 1026.5mb 45f 41f
10:12 3 6 mph 1026.4mb 45f 41f
10:06 3 8 mph 1026.5mb 45f 41f
10:00 2 9 mph 1026.5mb 45f 41f
9:54 5 7 mph 1026.5mb 45f 40f
9:48 3 8 mph 1026.5mb 45f 40f
9:42 6 8 mph 1026.6mb 45f 39f
9:36 6 8 mph 1026.6mb 45f 39f
9:30 2 7 mph 1026.6mb 45f 39f
9:24 5 8 mph 1026.6mb 45f 39f
9:18 3 6 mph 1026.6mb 45f -
9:12 2 7 mph 1026.6mb 45f -
9:06 3 6 mph 1026.5mb 45f -
9:00 3 7 mph 1026.4mb 45f 38f
8:54 5 7 mph 1026.4mb 45f 38f
8:48 5 8 mph 1026.3mb 45f 38f
8:42 6 10 mph 1026.2mb 45f 37f
8:36 7 9 mph 1026.2mb 45f 37f
8:30 6 10 mph 1026.1mb 45f 37f
8:24 6 10 mph 1026.1mb 45f 36f
8:18 3 6 mph 1026mb 45f 36f
8:12 3 6 mph 1026mb 45f 36f
8:06 1 6 mph 1025.9mb 45f 36f
8:00 3 8 mph 1025.9mb 45f 36f
7:54  -  3 mph 1025.8mb 45f 36f
7:48 1 5 mph 1025.8mb 45f 36f
7:42 2 6 mph 1025.8mb 45f 35f
7:36 2 5 mph 1025.7mb 45f 36f
7:30 2 5 mph 1025.7mb 45f 36f
7:24 3 7 mph 1025.7mb 45f 36f
7:18 3 7 mph 1025.6mb 45f 36f
7:12 3 7 mph 1025.5mb 45f 36f
7:06 5 9 mph 1025.4mb 45f 36f
7:00 3 6 mph 1025.4mb 45f 36f
6:54 2 7 mph 1025.4mb 45f 36f
6:48 5 7 mph 1025.4mb 45f 36f
6:42 3
mph
1025.4mb 45f 36f
6:36 2 5 mph 1025.4mb 45f 36f
6:30 3 5 mph 1025.4mb 45f 36f
6:24 2 3 mph 1025.4mb 45f 36f
6:18  -  2 mph 1025.4mb 45f 36f
6:12 1 3 mph 1025.4mb 45f 36f
6:06 2 3 mph 1025.3mb 45f 36f
6:00 2 3 mph 1025.3mb 45f 36f
5:54  -  2 mph 1025.3mb 45f 36f
5:48 1 2 mph 1025.3mb 45f 36f
5:42 2
mph
1025.2mb 45f 36f
5:36 2 6 mph 1025.2mb 45f 36f
5:30 3 6 mph 1025.1mb 45f 36f
5:24 5 7 mph 1025mb 45f 36f
5:18 6 8 mph 1025mb 45f 37f
5:12 3 7 mph 1024.9mb 45f 37f
5:06 6 7 mph 1024.9mb 45f 37f
5:00 3 6 mph 1024.9mb 45f 37f
4:54 2 3 mph 1024.9mb 45f 37f
4:48 1 2 mph 1024.9mb 46f 37f
4:42 1 2 mph 1025mb 46f 37f
4:36 1 2 mph 1024.9mb 46f 37f
4:30  -  2 mph 1024.9mb 46f 37f
4:24 1 2 mph 1024.8mb 46f 37f
4:18  -  2 mph 1024.7mb 46f 37f
4:12  -  2 mph 1024.7mb 46f 37f
4:06 1 2 mph 1024.7mb 46f 37f
4:00  -  2 mph 1024.8mb 46f 37f
3:54 1 2 mph 1024.8mb 46f 38f
3:48  -  2 mph 1024.8mb 46f 38f
3:42 1 3 mph 1024.8mb 46f 38f
3:36  -  3 mph 1024.8mb 46f 38f
3:30 1 2 mph 1024.8mb 46f 38f
3:24  -  1 mph 1024.7mb 46f 37f
3:18 1 2 mph 1024.7mb 46f 38f
3:12 2 3 mph 1024.7mb 46f 38f
3:06 2 3 mph 1024.8mb 46f 38f
3:00 1 3 mph 1024.8mb 46f 38f
2:54  -  2 mph 1024.9mb 46f 38f
2:48  -  2 mph 1025mb 46f 38f
2:42 1 2 mph 1025.1mb 46f 38f
2:36 2
mph
1025.1mb 45f 38f
2:30  -  1 mph 1025.1mb 45f 38f
2:24  -  2 mph 1025.1mb 45f 38f
2:18  -  2 mph 1025.1mb 45f 38f
2:12  -  2 mph 1025.1mb 45f 38f
2:06  -  1 mph 1025.1mb 45f 38f
2:00  -  1 mph 1025.1mb 45f 38f
1:54  -  1 mph 1025.1mb 46f 38f
1:48  -  1 mph 1025.1mb 46f 38f
1:42  -  1 mph 1025mb 46f 38f
1:36  -  2 mph 1025mb 46f 38f
1:30 2 5 mph 1025mb 46f 39f
1:24 3 5 mph 1025mb 46f 39f
1:18 2 5 mph 1025mb 46f 39f
1:12 2 3 mph 1025mb 46f 39f
1:06 1 2 mph 1025mb 46f 39f
1:00 2 3 mph 1025mb 46f 39f
12:54 2 3 mph 1025mb 46f 39f
12:48 3 5 mph 1024.9mb 46f 39f
12:42 2 3 mph 1025mb 46f 39f
12:36 1 2 mph 1025mb 46f 39f
12:30 1 2 mph 1025mb 46f 39f
12:24 2 3 mph 1024.9mb 46f 39f
12:18 2 5 mph 1024.9mb 46f 39f
12:12 3 5 mph 1024.8mb 46f 39f
12:06 3 5 mph 1024.8mb 46f 39f
12:00 3 5 mph 1024.8mb 46f 39f
Di 03/03 11:54 1 6 mph 1024.8mb 46f 40f
11:48 5 8 mph 1024.7mb 46f 40f
11:42 6 7 mph 1024.6mb 46f 40f
11:36 7 8 mph 1024.6mb 46f 40f
11:30 5 6 mph 1024.6mb 46f 41f
11:24 5 6 mph 1024.5mb 46f 42f
11:18 5 6 mph 1024.5mb 46f 42f
11:12 3 5 mph 1024.5mb 46f 43f
11:06 5 6 mph 1024.5mb 46f 42f
11:00 3 5 mph 1024.4mb 46f 43f
10:54 2 3 mph 1024.4mb 46f 42f
10:48  -  2 mph 1024.4mb 46f 42f
10:42 1 2 mph 1024.5mb 46f 42f
10:36 2
mph
1024.4mb 46f 42f
10:30  -  5 mph 1024.4mb 46f 42f
10:24 2
mph
1024.4mb 46f 43f
10:18 1 6 mph 1024.4mb 46f 44f
10:12 6 8 mph 1024.4mb 46f 45f
10:06 6 7 mph 1024.3mb 46f 45f
10:00 3 6 mph 1024.4mb 46f 44f
9:54 3 6 mph 1024.3mb 46f 44f
9:48 3 5 mph 1024.3mb 46f 44f
9:42 2 3 mph 1024.3mb 46f 44f
9:36  -  3 mph 1024.4mb 46f 42f
9:30 2 3 mph 1024.3mb 46f 42f
9:24 2 3 mph 1024.3mb 46f 42f
9:18  -  1 mph 1024.3mb 46f 44f
9:12 1 5 mph 1024.2mb 46f 44f
9:06 1 2 mph 1024.1mb 46f 44f
9:00  -  1 mph 1024.1mb 46f 44f
8:54 1 2 mph 1024.1mb 46f 44f
8:48 2
mph
1024.1mb 46f 45f
8:42 1 2 mph 1024mb 46f 45f
8:36 1 5 mph 1023.9mb 46f 45f
8:30 1 3 mph 1023.9mb 46f 45f
8:24 1 6 mph 1023.9mb 46f 46f
8:18 2 6 mph 1023.8mb 46f 46f
8:12  -  1 mph 1023.8mb 46f 45f
8:06  -  2 mph 1023.8mb 46f 46f
8:00 2 6 mph 1023.8mb 46f 47f
7:54 3 6 mph 1023.8mb 46f 47f
7:48 5 6 mph 1023.8mb 46f 47f
7:42 2 5 mph 1023.8mb 46f 47f
7:36 2
mph
1023.8mb 46f 47f
7:30 2
mph
1023.8mb 46f 47f
7:24 2
mph
1023.8mb 46f 46f
7:18  -  1 mph 1023.8mb 46f 46f
7:12  -  3 mph 1023.7mb 46f 47f
7:06 2 3 mph 1023.6mb 46f 48f
7:00 2 3 mph 1023.6mb 46f 48f
6:54 2 6 mph 1023.5mb 46f 48f
6:48 2 3 mph 1023.5mb 46f 48f
6:42 1 3 mph 1023.5mb 46f 48f
6:36 3 6 mph 1023.5mb 46f 48f
6:30 5 6 mph 1023.4mb 46f 49f
6:24 5 6 mph 1023.3mb 46f 49f
6:18 6 7 mph 1023.3mb 46f 49f
6:12 5 6 mph 1023.2mb 46f 49f
6:06 2 6 mph 1023.1mb 46f 49f
6:00 3 6 mph 1023.1mb 46f 49f
5:54 2 3 mph 1023.2mb 46f 50f
5:48 1 2 mph 1023.2mb 46f 49f
5:42  -  5 mph 1023.2mb 46f 50f
5:36 5 6 mph 1023.3mb 46f 50f
5:30 6 7 mph 1023.3mb 46f 50f
5:24 3 6 mph 1023.3mb 46f 50f
5:18 3 6 mph 1023.3mb 46f 49f
5:12 6 7 mph 1023.2mb 46f 49f
5:06 3 6 mph 1023.2mb 46f 50f
5:00 5 7 mph 1023.2mb 46f 49f
4:54 6 10 mph 1023.3mb 46f 49f
4:48 8 11 mph 1023.3mb 46f 49f
4:42 9 10 mph 1023.3mb 46f 50f
4:36 8 9 mph 1023.3mb 46f 50f
4:30 5 8 mph 1023.4mb 46f 50f
4:24 3 6 mph 1023.4mb 46f 50f
4:18 5 7 mph 1023.3mb 46f 50f
4:12 5 6 mph 1023.3mb 46f 50f
4:06 3 6 mph 1023.3mb 46f 49f
4:00 5 7 mph 1023.4mb 46f 49f
3:54 7 8 mph 1023.4mb 45f 50f
3:48 7 8 mph 1023.4mb 45f 50f
3:42 7 8 mph 1023.4mb 45f 49f
3:36 5 6 mph 1023.4mb 45f 49f
3:30 3 5 mph 1023.4mb 45f 49f
3:24 5 7 mph 1023.4mb 45f 49f
3:18 6 8 mph 1023.4mb 45f 49f
3:12 3 5 mph 1023.4mb 45f 49f
3:06 5 7 mph 1023.3mb 45f 49f
3:00 2 3 mph 1023.3mb 45f 51f
2:54 2 3 mph 1023.3mb 45f 50f
2:48 3 5 mph 1023.4mb 45f 50f
2:42 3 5 mph 1023.4mb 45f 52f
2:36 2 3 mph 1023.4mb 45f 52f
2:30 2
mph
1023.4mb 45f 53f
2:24  -  1 mph 1023.4mb 45f 53f
2:18 1
mph
1023.5mb 45f 52f
2:12  -  2 mph 1023.5mb 45f 52f
2:06  -  2 mph 1023.6mb 45f 52f
2:00 1 2 mph 1023.6mb 45f 50f
1:54 2
mph
1023.7mb 45f 51f
1:48 1 2 mph 1023.7mb 45f 51f
1:42 2
mph
1023.8mb 45f 49f
1:36 2
mph
1023.9mb 45f 50f
1:30 2 3 mph 1024mb 45f 48f
1:24 2 3 mph 1024mb 45f 48f
1:18 3
mph
1024mb 45f 48f
1:12 3 5 mph 1024.1mb 45f 48f
1:06 5
mph
1024.1mb 45f 49f
1:00 3 6 mph 1024.1mb 45f 49f
12:54 3 7 mph 1024.1mb 45f 49f
12:48 5 6 mph 1024.1mb 45f 49f
12:42 6
mph
1024.1mb 45f 49f
12:36 6 7 mph 1024.1mb 45f 49f
12:30 5 6 mph 1024.2mb 45f 49f
12:24 2 6 mph 1024.2mb 45f 49f
12:18 3 6 mph 1024.3mb 45f 49f
12:12 5 6 mph 1024.3mb 45f 49f
12:06 2 5 mph 1024.3mb 45f 49f
12:00 2 5 mph 1024.3mb 45f 49f
11:54 3 6 mph 1024.4mb 45f 47f
11:48 5 7 mph 1024.4mb 45f 47f
11:42 3 6 mph 1024.4mb 45f 47f
11:36 1 6 mph 1024.4mb 45f 48f
11:30 3 7 mph 1024.5mb 45f 47f
11:24 3 7 mph 1024.5mb 45f 47f
11:18 3 7 mph 1024.5mb 45f 46f
11:12 3 7 mph 1024.6mb 45f 45f
11:06 3 7 mph 1024.6mb 45f 45f
11:00 1 3 mph 1024.5mb 45f 45f
10:54 1 7 mph 1024.5mb 45f 44f
10:48 6 9 mph 1024.5mb 45f 43f
10:42 5 8 mph 1024.5mb 45f 43f
10:36 3 6 mph 1024.5mb 45f 43f
10:30 1 7 mph 1024.5mb 45f 43f
10:24 6 9 mph 1024.5mb 45f 42f
10:18 2 7 mph 1024.6mb 45f 42f
10:12 3 7 mph 1024.6mb 45f 42f
10:06  -  2 mph 1024.6mb 45f 43f
10:00 2 5 mph 1024.5mb 45f 42f
9:54 1 3 mph 1024.6mb 45f 42f
9:48 3 7 mph 1024.5mb 45f 41f
9:42 6 8 mph 1024.6mb 45f 41f
9:36 5 7 mph 1024.5mb 45f 41f
9:30  -  2 mph 1024.6mb 45f 41f
9:24 1 6 mph 1024.5mb 45f 40f
9:18 3 6 mph 1024.5mb 45f 40f
9:12 1 5 mph 1024.5mb 45f 41f
9:06 2 6 mph 1024.4mb 45f 40f
9:00 5 6 mph 1024.3mb 45f 40f
8:54 1 5 mph 1024.3mb 45f 40f
8:48 2 5 mph 1024.2mb 45f 40f
8:42 3 5 mph 1024.2mb 45f 40f
8:36 1 5 mph 1024.1mb 45f 39f
8:30 2 7 mph 1024.1mb 45f -
8:24 6 7 mph 1024mb 45f -
8:18 2 3 mph - - 37f
8:12 2 5 mph - - 38f
8:06 3 6 mph - - 37f
8:00  -  mph 1023.9mb 45f 37f
7:54  -  mph 1023.8mb 45f 37f
7:48 5 6 mph - 45f 36f
7:42 3 7 mph - 45f 36f
7:36 6 8 mph - 45f 36f
7:30 1 2 mph - 45f 36f
7:24 1 5 mph - 45f 35f
7:18  -  mph 1023.5mb 45f 35f
7:12  -  mph 1023.4mb 45f 35f
7:06  -  mph 1023.4mb 45f 35f
7:00 8 9 mph - - 34f
6:54 8 10 mph - - 34f
6:48 8 9 mph - - -
6:42 7 9 mph - - -
6:36 8 9 mph - - -
6:30  -  mph - - 35f
6:24  -  mph - - 35f
6:18 7 9 mph - 45f -
6:12 7 9 mph - 45f -
6:06 7 9 mph - 45f -
6:00  -  mph 1023.6mb - 36f
5:54  -  mph 1023.6mb - 37f
5:48 9 10 mph - - 36f
5:42 9 11 mph - - 36f
5:36 7 8 mph - - 37f
5:30  -  mph - 45f -
5:24  -  mph - 45f -
5:18 1 3 mph 1023.5mb - 37f
5:12 2
mph
1023.5mb - 37f
5:06  -  1 mph 1023.4mb - 37f
5:00  -  1 mph - 45f -
4:54 1 2 mph - 45f -
4:48  -  mph 1023.3mb 45f -
4:42  -  mph 1023.3mb 45f -
4:36  -  mph 1023.3mb 45f -
4:30  -  mph 1023.2mb - 37f
4:24  -  mph 1023.2mb - 37f
4:18  -  mph 1023.1mb - 37f
4:12  -  mph 1023.1mb - 37f
4:06  -  mph 1023.1mb - 37f
4:00 1 2 mph 1023.1mb 45f 38f
3:54 1 2 mph 1023.1mb 45f 38f
3:48  -  2 mph - 45f -
3:42  -  1 mph - 45f -
3:36  -  1 mph - 45f -
3:30  -  3 mph 1023mb 46f -
3:24 2
mph
1023mb 46f -
3:18  -  mph 1023mb 46f 38f
3:12  -  mph 1023mb 46f 38f
3:06  -  mph 1023mb 46f 38f
3:00  -  mph 1023mb 46f 38f
2:54  -  mph 1023mb 46f 38f
2:48 1 2 mph - - -
2:42  -  2 mph - - -
2:36 1 2 mph - - -
2:30  -  mph 1023mb 46f -
2:24  -  mph 1022.9mb 46f -
2:18  -  2 mph - 45f 39f
2:12 1 2 mph - 45f 39f
2:06  -  1 mph - 45f 39f
2:00  -  2 mph 1022.8mb 45f -
1:54  -  1 mph 1022.7mb 45f -
1:48  -  mph 1022.6mb 45f -
1:42  -  mph 1022.7mb 45f -
1:36  -  mph 1022.6mb 45f -
1:30 2
mph
1022.6mb - 40f
1:24  -  2 mph 1022.6mb - 40f
1:18  -  mph - - 40f
1:12  -  mph - - 40f
1:06  -  mph - - 40f
1:00  -  mph 1022.4mb 46f 40f
12:54  -  mph 1022.3mb 46f 40f
12:48  -  1 mph 1022.3mb - 40f
12:42  -  1 mph 1022.2mb - 40f
12:36  -  1 mph 1022.2mb - 40f
12:30  -  2 mph 1022.1mb - 40f
12:24  -  1 mph 1022.1mb - 41f
12:18  -  mph - 46f 41f
12:12  -  mph - 45f 41f
12:06  -  mph - 45f 41f
12:00 3 6 mph 1021.7mb - 41f
Mo 03/02 11:54  -  3 mph 1021.7mb - 41f
11:48 2 5 mph 1021.6mb 45f 41f
11:42 3 6 mph 1021.6mb 45f 42f
11:36 2
mph
1021.6mb 45f 42f
11:30  -  2 mph 1021.5mb - 41f
11:24 2 3 mph 1021.4mb - 42f
11:18  -  mph - - 42f
11:12  -  mph - - 42f
11:06  -  mph - - 42f
11:00 6 8 mph - - -
10:54 6 8 mph - - -
10:30 2 3 mph 1020.9mb - 43f
10:24 2 7 mph 1020.9mb - 44f
10:06 3
mph
- - 45f
10:00  -  mph - 46f 46f
9:54  -  mph - 46f 45f
9:48  -  mph - 46f 45f
9:42  -  mph - 46f 44f
9:36  -  mph - 46f 44f
9:30  -  mph 1020.7mb - -
9:24  -  mph 1020.7mb - -
9:18  -  mph 1020.6mb 46f 44f
9:12  -  mph 1020.5mb 46f 46f
9:06  -  mph 1020.4mb 46f 46f
9:00  -  mph 1020.3mb - -
8:54  -  mph 1020.3mb - -
8:48  -  mph - 46f 46f
8:42  -  mph - 46f 46f
8:24  -  mph - 46f 47f
8:18  -  mph 1019.9mb 46f 47f
8:12  -  mph 1019.7mb 46f 47f
8:06  -  mph 1019.8mb - 47f
8:00  -  mph 1019.8mb - 47f
7:54 6 9 mph 1019.9mb 46f 47f
7:48  -  mph - 46f -
7:42  -  mph - 46f -
7:36  -  mph - 46f -
7:30 11 16 mph 1019.6mb - 47f
7:24 6 13 mph 1019.6mb - 47f
7:18  -  mph - 46f -
7:12  -  mph - 46f -
7:06  -  mph - 46f -
7:00  -  mph 1019.2mb 46f 47f
6:54  -  mph 1019.1mb 46f 47f
6:48 8 10 mph - 46f -
6:42 9 11 mph - 46f -
6:36 9 13 mph - 46f -
6:30  -  mph - 46f -
6:24  -  mph - 46f -
6:18  -  mph - 46f -
6:12  -  mph - 46f -
6:06  -  mph - 46f -
6:00 14 16 mph 1018.3mb 46f 47f
5:54 14 17 mph 1018.2mb 46f 48f
5:48  -  mph - 46f 48f
5:42  -  mph - 46f 48f
5:36  -  mph - 46f 48f
5:30  -  mph - 46f 48f
5:24  -  mph - 46f 48f
5:18  -  mph 1017.9mb 46f 48f
5:12  -  mph 1017.8mb 46f 49f
5:06  -  mph 1017.8mb 46f 49f
5:00 13 16 mph 1017.7mb 46f -
4:54 16 20 mph 1017.7mb 46f -
4:48 15 17 mph - 46f -
4:42 14 16 mph - 46f -
4:36 15 20 mph - 46f -
4:30  -  mph 1017.6mb 46f -
4:24  -  mph 1017.6mb 46f -
4:18  -  mph 1017.6mb - 49f
4:12  -  mph 1017.6mb - 49f
4:06  -  mph 1017.5mb - 49f
4:00 11 14 mph - 45f -
3:54 8 9 mph - 45f -
3:48 6 7 mph - 45f -
3:42 5 7 mph - 45f -
3:36 6 7 mph - 45f -
3:30 7 8 mph - 45f 49f
3:24 6 11 mph - 45f 49f
3:18 10 13 mph 1017.5mb 45f 49f
3:12 9 10 mph 1017.5mb 45f 49f
3:06 9 10 mph 1017.4mb 45f 48f
3:00 6 8 mph 1017.3mb 45f 48f
2:54 7 8 mph 1017.2mb 45f 48f
2:48 6 7 mph 1017.2mb 46f 49f
2:42 6
mph
1017.1mb 46f 50f
2:36 6
mph
1017.1mb 45f 50f
2:30 5 6 mph 1017.1mb 45f 50f
2:24 3 5 mph 1017.1mb 45f 50f
2:18 3 5 mph 1017.1mb 45f 50f
2:12 2 5 mph 1017.1mb 45f 49f
2:06 3 6 mph 1017mb 46f 49f
2:00 5 6 mph 1017mb 46f 49f
1:54 5 6 mph 1017mb 45f 49f
1:48 3 5 mph 1017.1mb 45f 49f
1:42 3
mph
1017.1mb 45f 49f
1:36  -  2 mph 1017.1mb 45f 50f
1:30 2 3 mph 1017.2mb 46f 49f
1:24 2 3 mph 1017.2mb 46f 49f
1:18 3
mph
1017.2mb 45f 48f
1:12 2
mph
1017.3mb 45f 48f
1:06 3 5 mph 1017.3mb 45f 48f
1:00 5 6 mph 1017.4mb 45f 47f
12:54 3 7 mph 1017.4mb 45f 48f
12:48 6 7 mph 1017.4mb 45f 47f
12:42 6 7 mph 1017.5mb 45f 47f
12:36 8 10 mph 1017.5mb 45f 47f
12:30 9 11 mph 1017.6mb 45f 47f
12:24 6 11 mph 1017.6mb 45f 47f
12:18 5 9 mph 1017.6mb 45f 47f